createdAt,value
2018-02-07T00:06:01.716Z,-1.08
2018-02-07T00:12:06.399Z,-1.02
2018-02-07T00:18:11.719Z,-1.00
2018-02-07T00:24:16.308Z,-1.08
2018-02-07T00:30:22.231Z,-1.09
2018-02-07T00:36:26.811Z,-1.08
2018-02-07T00:42:31.362Z,-1.05
2018-02-07T00:48:35.880Z,-1.13
2018-02-07T00:54:40.424Z,-1.11
2018-02-07T01:00:45.682Z,-1.09
2018-02-07T01:06:51.576Z,-0.99
2018-02-07T01:12:56.141Z,-1.00
2018-02-07T01:19:01.054Z,-1.02
2018-02-07T01:25:05.574Z,-1.09
2018-02-07T01:31:10.071Z,-1.10
2018-02-07T01:37:14.793Z,-1.15
2018-02-07T01:43:19.332Z,-1.05
2018-02-07T01:49:24.062Z,-1.13
2018-02-07T01:55:28.565Z,-1.09
2018-02-07T02:01:33.056Z,-1.15
2018-02-07T02:07:37.534Z,-1.16
2018-02-07T02:13:42.066Z,-1.19
2018-02-07T02:19:46.588Z,-1.11
2018-02-07T02:25:51.822Z,-1.17
2018-02-07T02:31:57.360Z,-1.18
2018-02-07T02:38:02.827Z,-1.22
2018-02-07T02:44:07.388Z,-1.28
2018-02-07T02:50:11.912Z,-1.24
2018-02-07T02:56:16.782Z,-1.29
2018-02-07T03:02:22.454Z,-1.36
2018-02-07T03:08:27.295Z,-1.44
2018-02-07T03:14:31.892Z,-1.50
2018-02-07T03:20:36.494Z,-1.45
2018-02-07T03:26:41.195Z,-1.51
2018-02-07T03:32:45.697Z,-1.59
2018-02-07T03:38:50.634Z,-1.61
2018-02-07T03:44:56.129Z,-1.68
2018-02-07T03:51:00.658Z,-1.64
2018-02-07T03:57:05.538Z,-1.73
2018-02-07T04:03:10.074Z,-1.74
2018-02-07T04:09:14.641Z,-1.80
2018-02-07T04:15:20.690Z,-1.99
2018-02-07T04:21:26.225Z,-2.14
2018-02-07T04:27:30.855Z,-2.38
2018-02-07T04:33:35.690Z,-2.36
2018-02-07T04:39:40.430Z,-2.26
2018-02-07T04:45:45.069Z,-2.37
2018-02-07T04:51:50.274Z,-2.42
2018-02-07T04:57:55.175Z,-2.52
2018-02-07T05:04:00.025Z,-2.59
2018-02-07T05:10:04.557Z,-2.74
2018-02-07T05:16:09.060Z,-2.81
2018-02-07T05:22:14.000Z,-2.76
2018-02-07T05:28:18.581Z,-2.70
2018-02-07T05:34:23.611Z,-2.52
2018-02-07T05:40:28.157Z,-2.39
2018-02-07T05:46:32.984Z,-2.26
2018-02-07T05:52:39.443Z,-2.08
2018-02-07T05:58:44.269Z,-2.02
2018-02-07T06:04:48.893Z,-2.09
2018-02-07T06:10:54.411Z,-2.25
2018-02-07T06:16:59.673Z,-2.34
2018-02-07T06:23:04.175Z,-2.49
2018-02-07T06:29:08.705Z,-2.51
2018-02-07T06:35:13.348Z,-2.47
2018-02-07T06:41:17.933Z,-2.24
2018-02-07T06:47:23.082Z,-2.09
2018-02-07T06:53:28.404Z,-2.07
2018-02-07T06:59:33.928Z,-1.97
2018-02-07T07:05:38.732Z,-1.99
2018-02-07T07:11:43.501Z,-1.92
2018-02-07T07:17:48.163Z,-1.95
2018-02-07T07:23:53.324Z,-1.83
2018-02-07T07:29:57.891Z,-1.77
2018-02-07T07:36:03.408Z,-1.63
2018-02-07T07:42:07.907Z,-1.48
2018-02-07T07:48:12.402Z,-1.45
2018-02-07T07:54:17.034Z,-1.41
2018-02-07T08:00:21.604Z,-1.25
2018-02-07T08:06:26.132Z,-1.08
2018-02-07T08:12:30.635Z,-0.90
2018-02-07T08:18:35.157Z,-0.86
2018-02-07T08:24:39.679Z,-0.74
2018-02-07T08:30:44.171Z,-0.65
2018-02-07T08:36:49.441Z,-0.62
2018-02-07T08:42:53.930Z,-0.50
2018-02-07T08:48:58.443Z,-0.32
2018-02-07T08:55:02.950Z,-0.07
2018-02-07T09:01:08.195Z,0.02
2018-02-07T09:07:12.663Z,0.05
2018-02-07T09:13:17.187Z,0.08
2018-02-07T09:19:22.577Z,0.38
2018-02-07T09:25:27.271Z,0.49
2018-02-07T09:31:31.826Z,0.66
2018-02-07T09:37:36.325Z,0.65
2018-02-07T09:43:40.798Z,0.76
2018-02-07T09:49:45.257Z,0.87
2018-02-07T09:55:51.163Z,1.05
2018-02-07T10:01:55.803Z,1.00
2018-02-07T10:08:01.056Z,1.04
2018-02-07T10:14:05.530Z,1.24
2018-02-07T10:20:10.008Z,1.30
2018-02-07T10:26:14.631Z,1.44
2018-02-07T10:32:21.078Z,1.45
2018-02-07T10:38:25.835Z,1.61
2018-02-07T10:44:30.428Z,1.80
2018-02-07T10:50:35.696Z,1.82
2018-02-07T10:56:40.176Z,1.87
2018-02-07T11:02:45.587Z,1.56
2018-02-07T11:08:50.102Z,2.12
2018-02-07T11:14:55.842Z,1.98
2018-02-07T11:21:00.403Z,2.21
2018-02-07T11:27:04.914Z,2.25
2018-02-07T11:33:09.452Z,2.00
2018-02-07T11:39:13.974Z,2.18
2018-02-07T11:45:18.485Z,2.38
2018-02-07T11:51:23.008Z,2.47
2018-02-07T11:57:27.951Z,2.44
2018-02-07T12:03:32.528Z,2.31
2018-02-07T12:09:36.999Z,1.99
2018-02-07T12:15:41.529Z,2.49
2018-02-07T12:21:45.991Z,2.17
2018-02-07T12:27:50.941Z,1.98
2018-02-07T12:33:55.660Z,2.12
2018-02-07T12:40:00.186Z,2.01
2018-02-07T12:46:05.462Z,2.33
2018-02-07T12:52:09.936Z,2.68
2018-02-07T12:58:14.451Z,3.00
2018-02-07T13:04:18.977Z,2.51
2018-02-07T13:10:23.523Z,2.60
2018-02-07T13:16:28.084Z,2.74
2018-02-07T13:22:33.327Z,2.58
2018-02-07T13:28:38.774Z,2.61
2018-02-07T13:34:44.023Z,2.22
2018-02-07T13:40:48.542Z,1.98
2018-02-07T13:46:53.123Z,1.83
2018-02-07T13:52:58.355Z,2.07
2018-02-07T13:59:02.836Z,2.02
2018-02-07T14:05:07.332Z,2.08
2018-02-07T14:11:11.927Z,1.80
2018-02-07T14:17:16.487Z,1.92
2018-02-07T14:23:21.861Z,1.86
2018-02-07T14:29:26.470Z,1.80
2018-02-07T14:35:31.026Z,2.06
2018-02-07T14:41:35.482Z,1.88
2018-02-07T14:47:40.006Z,1.63
2018-02-07T14:53:44.525Z,1.58
2018-02-07T14:59:50.374Z,1.47
2018-02-07T15:05:55.037Z,1.53
2018-02-07T15:11:59.515Z,1.30
2018-02-07T15:18:04.014Z,1.08
2018-02-07T15:24:08.548Z,1.28
2018-02-07T15:30:13.946Z,1.21
2018-02-07T15:36:19.643Z,0.78
2018-02-07T15:42:24.302Z,0.32
2018-02-07T15:48:28.969Z,0.07
2018-02-07T15:54:33.490Z,-0.21
2018-02-07T16:00:38.181Z,-0.27
2018-02-07T16:06:42.720Z,-0.35
2018-02-07T16:12:47.190Z,-0.43
2018-02-07T16:18:53.864Z,-0.58
2018-02-07T16:24:58.399Z,-0.66
2018-02-07T16:31:03.687Z,-0.74
2018-02-07T16:37:08.167Z,-0.81
2018-02-07T16:43:12.653Z,-0.80
2018-02-07T16:49:17.127Z,-0.81
2018-02-07T16:55:22.663Z,-0.80
2018-02-07T17:01:27.228Z,-0.84
2018-02-07T17:07:32.519Z,-0.93
2018-02-07T17:13:37.099Z,-0.92
2018-02-07T17:19:41.582Z,-0.93
2018-02-07T17:25:46.949Z,-0.91
2018-02-07T17:31:57.213Z,-0.97
2018-02-07T17:38:02.466Z,-1.08
2018-02-07T17:44:06.987Z,-1.08
2018-02-07T17:50:12.254Z,-1.05
2018-02-07T17:56:16.763Z,-1.23
2018-02-07T18:02:22.054Z,-1.27
2018-02-07T18:08:26.585Z,-1.32
2018-02-07T18:14:31.263Z,-1.43
2018-02-07T18:20:35.759Z,-1.53
2018-02-07T18:26:40.401Z,-1.66
2018-02-07T18:32:44.897Z,-1.77
2018-02-07T18:38:49.466Z,-1.86
2018-02-07T18:44:54.280Z,-1.82
2018-02-07T18:50:58.893Z,-1.89
2018-02-07T18:57:04.291Z,-1.99
2018-02-07T19:03:09.154Z,-2.09
2018-02-07T19:09:14.642Z,-2.26
2018-02-07T19:15:20.719Z,-2.39
2018-02-07T19:21:25.543Z,-2.60
2018-02-07T19:27:30.045Z,-2.67
2018-02-07T19:33:34.561Z,-2.65
2018-02-07T19:39:39.406Z,-2.67
2018-02-07T19:45:43.886Z,-2.68
2018-02-07T19:51:49.518Z,-2.68
2018-02-07T19:57:54.441Z,-2.80
2018-02-07T20:03:58.966Z,-2.88
2018-02-07T20:10:03.525Z,-2.93
2018-02-07T20:16:08.842Z,-2.96
2018-02-07T20:22:13.451Z,-3.02
2018-02-07T20:28:18.108Z,-3.06
2018-02-07T20:34:23.436Z,-3.07
2018-02-07T20:40:27.954Z,-3.09
2018-02-07T20:46:32.432Z,-3.16
2018-02-07T20:52:36.917Z,-3.22
2018-02-07T20:58:41.430Z,-3.27
2018-02-07T21:04:46.080Z,-3.29
2018-02-07T21:10:51.049Z,-3.31
2018-02-07T21:16:55.538Z,-3.47
2018-02-07T21:23:00.030Z,-3.62
2018-02-07T21:29:05.287Z,-3.52
2018-02-07T21:35:09.820Z,-3.41
2018-02-07T21:41:14.311Z,-3.54
2018-02-07T21:47:18.827Z,-3.55
2018-02-07T21:53:23.839Z,-3.56
2018-02-07T21:59:28.360Z,-3.61
2018-02-07T22:05:32.869Z,-3.63
2018-02-07T22:11:37.419Z,-3.60
2018-02-07T22:17:41.930Z,-3.67
2018-02-07T22:23:46.566Z,-3.85
2018-02-07T22:29:51.066Z,-3.78
2018-02-07T22:35:55.552Z,-3.92
2018-02-07T22:42:00.038Z,-3.94
2018-02-07T22:48:04.544Z,-3.98
2018-02-07T22:54:09.080Z,-4.02
2018-02-07T23:00:13.697Z,-4.19
2018-02-07T23:06:18.171Z,-4.15
2018-02-07T23:12:24.333Z,-4.23
2018-02-07T23:18:28.913Z,-4.25
2018-02-07T23:24:33.839Z,-4.29
2018-02-07T23:30:38.447Z,-4.27
2018-02-07T23:36:43.719Z,-4.26
2018-02-07T23:42:48.206Z,-4.34
2018-02-07T23:48:53.539Z,-4.47
2018-02-07T23:54:58.057Z,-4.53
